Time;durP1;ratioP1;P1;durP2;ratioP2;P2;SDS_P1;SDS_P2;PMS_P1;PMS_P2;Temp;Humidity;BMP_temperature;BMP_pressure;BME280_temperature;BME280_humidity;BME280_pressure;Samples;Min_cycle;Max_cycle;Signal;HPM_P1;HPM_P2
2022/10/24 00:00:00;;;;;;;5.47;1.63;;;14.40;99.90;;;;;;5113640;27;20397;-75
2022/10/24 00:02:26;;;;;;;6.97;1.92;;;14.40;99.90;;;;;;5109423;28;20405;-75
2022/10/24 00:04:52;;;;;;;4.97;1.48;;;14.30;99.90;;;;;;5106872;28;20443;-74
2022/10/24 00:07:17;;;;;;;5.17;2.00;;;14.40;99.90;;;;;;5108113;28;20924;-74
2022/10/24 00:09:43;;;;;;;5.60;1.77;;;14.40;99.90;;;;;;5109720;28;20753;-75
2022/10/24 00:12:09;;;;;;;5.88;1.58;;;14.40;99.90;;;;;;5107594;28;20850;-75
2022/10/24 00:14:35;;;;;;;7.68;1.90;;;14.50;99.90;;;;;;5106783;28;20565;-74
2022/10/24 00:17:01;;;;;;;6.80;1.88;;;14.50;99.90;;;;;;5109265;28;20945;-75
2022/10/24 00:19:27;;;;;;;4.78;1.50;;;14.50;99.90;;;;;;5108037;28;20901;-74
2022/10/24 00:21:53;;;;;;;5.88;1.50;;;14.50;99.90;;;;;;5108427;28;20395;-74
2022/10/24 00:24:19;;;;;;;5.70;1.90;;;14.50;99.90;;;;;;5106886;28;20420;-74
2022/10/24 00:26:44;;;;;;;4.45;1.35;;;14.50;99.90;;;;;;5090819;28;20404;-74
2022/10/24 00:29:10;;;;;;;5.43;1.53;;;14.50;99.90;;;;;;5120104;27;20407;-74
2022/10/24 00:31:36;;;;;;;5.70;1.35;;;14.50;99.90;;;;;;5108959;28;20430;-74
2022/10/24 00:34:02;;;;;;;7.53;1.60;;;14.50;99.90;;;;;;5108586;28;20488;-75
2022/10/24 00:36:28;;;;;;;3.17;1.48;;;14.50;99.90;;;;;;5108400;28;20408;-75
2022/10/24 00:38:54;;;;;;;7.10;1.48;;;14.50;99.90;;;;;;5106918;28;20411;-74
2022/10/24 00:41:24;;;;;;;5.53;1.40;;;14.50;99.90;;;;;;5091010;28;20420;-74
2022/10/24 00:44:10;;;;;;;7.63;1.40;;;14.50;99.90;;;;;;5107881;28;20431;-74
2022/10/24 00:46:36;;;;;;;5.35;1.48;;;14.50;99.90;;;;;;5107252;28;20400;-75
2022/10/24 00:49:01;;;;;;;5.78;1.40;;;14.50;99.90;;;;;;5098703;28;20933;-75
2022/10/24 00:51:32;;;;;;;6.25;1.48;;;14.50;99.90;;;;;;5107468;27;20448;-75
2022/10/24 00:54:06;;;;;;;5.30;1.35;;;14.50;99.90;;;;;;5108791;28;20404;-75
2022/10/24 00:56:40;;;;;;;6.75;1.13;;;14.50;99.90;;;;;;5108456;28;20432;-75
2022/10/24 00:59:09;;;;;;;6.70;1.25;;;14.50;99.90;;;;;;5108830;28;20493;-75
2022/10/24 01:01:36;;;;;;;5.57;1.13;;;14.50;99.90;;;;;;5108578;28;20423;-75
2022/10/24 01:04:02;;;;;;;7.38;1.60;;;14.40;99.90;;;;;;5108511;28;20790;-74
2022/10/24 01:06:43;;;;;;;5.93;1.23;;;14.40;99.90;;;;;;5107736;28;20404;-74
2022/10/24 01:09:18;;;;;;;5.72;1.20;;;14.40;99.90;;;;;;5090097;28;20412;-74
2022/10/24 01:11:43;;;;;;;5.65;1.50;;;14.40;99.90;;;;;;5108504;28;20405;-75
2022/10/24 01:14:39;;;;;;;5.43;1.50;;;14.40;99.90;;;;;;5110971;28;20432;-74
2022/10/24 01:17:10;;;;;;;3.07;0.90;;;14.40;99.90;;;;;;5112078;27;20408;-74
2022/10/24 01:20:00;;;;;;;4.30;1.15;;;14.40;99.90;;;;;;5099692;28;20411;-75
2022/10/24 01:22:58;;;;;;;5.18;1.15;;;14.30;99.90;;;;;;5112151;28;20416;-74
2022/10/24 01:25:42;;;;;;;4.53;1.20;;;14.30;99.90;;;;;;5107097;28;20446;-74
2022/10/24 01:28:10;;;;;;;5.23;1.37;;;14.30;99.90;;;;;;5094400;28;20408;-75
2022/10/24 01:31:03;;;;;;;5.55;1.45;;;14.20;99.90;;;;;;5111423;28;20400;-74
2022/10/24 01:33:40;;;;;;;5.32;1.10;;;14.20;99.90;;;;;;5083230;28;20960;-74
2022/10/24 01:36:11;;;;;;;3.15;0.98;;;14.10;99.90;;;;;;5110176;28;20495;-74
2022/10/24 01:38:41;;;;;;;4.80;1.00;;;14.20;99.90;;;;;;5110235;28;20413;-74
2022/10/24 01:41:20;;;;;;;3.13;0.83;;;14.20;99.90;;;;;;5112029;28;20422;-74
2022/10/24 01:44:10;;;;;;;6.80;1.27;;;14.20;99.90;;;;;;5111451;28;20423;-74
2022/10/24 01:46:45;;;;;;;4.78;1.10;;;14.20;99.90;;;;;;5109935;28;20508;-74
2022/10/24 01:49:23;;;;;;;6.45;1.70;;;14.30;99.90;;;;;;5110520;28;20412;-75
2022/10/24 01:51:54;;;;;;;4.78;1.05;;;14.30;99.90;;;;;;5111725;28;20475;-75
2022/10/24 01:54:20;;;;;;;4.55;1.17;;;14.20;99.90;;;;;;5112204;28;20412;-74
2022/10/24 01:56:46;;;;;;;5.40;1.38;;;14.30;99.90;;;;;;5110503;28;20413;-74
2022/10/24 01:59:27;;;;;;;6.23;1.30;;;14.30;99.90;;;;;;5110117;28;20392;-74
2022/10/24 02:02:18;;;;;;;8.60;1.45;;;14.30;99.90;;;;;;5078297;28;20402;-74
2022/10/24 02:05:11;;;;;;;4.60;1.33;;;14.20;99.90;;;;;;5059766;28;20412;-74
2022/10/24 02:07:41;;;;;;;5.38;1.38;;;14.20;99.90;;;;;;5092158;28;20504;-74
2022/10/24 02:10:14;;;;;;;5.00;1.55;;;14.20;99.90;;;;;;5111629;28;20454;-74
2022/10/24 02:12:45;;;;;;;4.25;1.13;;;14.20;99.90;;;;;;5111464;27;20465;-74
2022/10/24 02:15:17;;;;;;;7.60;1.45;;;14.20;99.90;;;;;;5109933;28;20422;-74
2022/10/24 02:17:43;;;;;;;5.60;1.27;;;14.30;99.90;;;;;;5111211;28;20472;-75
2022/10/24 02:20:10;;;;;;;5.23;1.20;;;14.30;99.90;;;;;;5093227;28;20487;-74
2022/10/24 02:22:48;;;;;;;5.55;1.15;;;14.30;99.90;;;;;;5107971;28;21008;-75
2022/10/24 02:25:23;;;;;;;5.38;1.23;;;14.40;99.90;;;;;;5108228;28;20838;-74
2022/10/24 02:27:57;;;;;;;6.38;1.70;;;14.40;99.90;;;;;;5112064;27;20465;-74
2022/10/24 02:30:24;;;;;;;4.47;1.50;;;14.50;99.90;;;;;;5109728;28;20424;-74
2022/10/24 02:32:56;;;;;;;5.35;1.33;;;14.50;99.90;;;;;;5111276;28;20437;-74
2022/10/24 02:35:26;;;;;;;4.05;1.33;;;14.50;99.90;;;;;;5110893;28;20420;-75
2022/10/24 02:37:57;;;;;;;6.40;1.40;;;14.60;99.90;;;;;;5109755;28;20456;-74
2022/10/24 02:40:23;;;;;;;5.18;1.50;;;14.60;99.90;;;;;;5110846;28;20412;-74
2022/10/24 02:42:53;;;;;;;8.15;1.58;;;14.70;99.90;;;;;;5109746;28;20424;-74
2022/10/24 02:45:19;;;;;;;5.35;1.50;;;14.70;99.90;;;;;;5109931;28;20750;-75
2022/10/24 02:47:47;;;;;;;7.00;2.00;;;14.80;99.90;;;;;;5109064;28;20449;-75
2022/10/24 02:50:13;;;;;;;7.65;1.65;;;14.80;99.90;;;;;;5110917;28;20746;-74
2022/10/24 02:52:40;;;;;;;6.07;1.43;;;14.80;99.90;;;;;;5106605;28;20457;-74
2022/10/24 02:55:06;;;;;;;6.63;1.47;;;14.80;99.90;;;;;;5108863;28;20401;-75
2022/10/24 02:57:32;;;;;;;6.20;1.60;;;14.80;99.90;;;;;;5109165;28;20407;-74
2022/10/24 02:59:58;;;;;;;6.40;1.77;;;14.80;99.90;;;;;;5102658;28;20408;-75
2022/10/24 03:02:24;;;;;;;5.25;1.55;;;14.80;99.90;;;;;;5108952;28;20504;-74
2022/10/24 03:04:49;;;;;;;6.50;2.00;;;14.80;99.90;;;;;;5110776;28;20388;-74
2022/10/24 03:07:15;;;;;;;12.13;2.83;;;14.80;99.90;;;;;;5111233;27;20406;-74
2022/10/24 03:09:40;;;;;;;4.00;1.47;;;14.80;99.90;;;;;;5110620;28;20400;-74
2022/10/24 03:12:06;;;;;;;8.00;2.05;;;14.80;99.90;;;;;;5110502;28;20411;-74
2022/10/24 03:14:32;;;;;;;5.53;1.57;;;14.90;99.90;;;;;;5108763;28;20499;-74
2022/10/24 03:16:57;;;;;;;7.43;1.73;;;15.00;99.90;;;;;;5108873;28;20492;-74
2022/10/24 03:19:23;;;;;;;7.30;1.70;;;15.00;99.90;;;;;;5110268;28;20404;-74
2022/10/24 03:21:50;;;;;;;7.85;1.70;;;14.90;99.90;;;;;;5114367;27;20820;-75
2022/10/24 03:24:16;;;;;;;6.15;1.83;;;14.90;99.90;;;;;;5110138;28;20420;-74
2022/10/24 03:26:41;;;;;;;14.30;2.10;;;15.00;99.90;;;;;;5109899;28;20803;-74
2022/10/24 03:29:07;;;;;;;4.80;1.53;;;14.90;99.90;;;;;;5108586;28;20861;-74
2022/10/24 03:31:33;;;;;;;5.55;1.90;;;14.90;99.90;;;;;;5110148;28;20449;-74
2022/10/24 03:33:58;;;;;;;6.80;1.50;;;14.90;99.90;;;;;;5115048;27;20432;-75
2022/10/24 03:36:24;;;;;;;5.93;2.00;;;14.90;99.90;;;;;;5109441;28;20405;-75
2022/10/24 03:38:50;;;;;;;6.88;1.60;;;14.90;99.90;;;;;;5091028;28;20909;-74
2022/10/24 03:41:16;;;;;;;7.40;1.60;;;14.90;99.90;;;;;;5109458;28;20404;-75
2022/10/24 03:43:41;;;;;;;4.78;1.50;;;14.90;99.90;;;;;;5108716;28;20420;-74
2022/10/24 03:46:07;;;;;;;8.57;1.70;;;15.00;99.90;;;;;;5108569;27;20405;-74
2022/10/24 03:48:32;;;;;;;8.02;1.73;;;15.00;99.90;;;;;;5108023;28;20796;-74
2022/10/24 03:50:58;;;;;;;5.23;1.40;;;15.00;99.90;;;;;;5119765;27;20727;-74
2022/10/24 03:53:24;;;;;;;7.10;1.73;;;15.00;99.90;;;;;;5109322;28;20392;-74
2022/10/24 03:55:49;;;;;;;6.10;1.30;;;15.00;99.90;;;;;;5107877;28;20404;-74
2022/10/24 03:58:15;;;;;;;7.25;1.92;;;15.10;99.90;;;;;;5107786;28;20458;-74
2022/10/24 04:00:41;;;;;;;6.43;1.70;;;15.10;99.90;;;;;;5108616;28;20487;-74
2022/10/24 04:03:08;;;;;;;7.93;1.60;;;15.10;99.90;;;;;;5109359;28;20836;-75
2022/10/24 04:05:34;;;;;;;6.00;1.50;;;15.10;99.90;;;;;;5109397;28;20957;-74
2022/10/24 04:08:00;;;;;;;7.85;1.70;;;15.10;99.90;;;;;;5107642;28;20492;-75
2022/10/24 04:10:26;;;;;;;5.97;1.70;;;15.10;99.90;;;;;;5107979;28;20492;-74
2022/10/24 04:12:52;;;;;;;6.15;1.77;;;15.10;99.90;;;;;;5109712;28;20810;-74
2022/10/24 04:15:18;;;;;;;6.53;1.92;;;15.10;99.90;;;;;;5107816;28;20438;-75
2022/10/24 04:17:44;;;;;;;5.38;1.65;;;15.10;99.90;;;;;;5109172;28;20475;-74
2022/10/24 04:20:10;;;;;;;5.10;1.40;;;15.10;99.90;;;;;;5107334;28;20845;-75
2022/10/24 04:22:36;;;;;;;7.28;1.80;;;15.10;99.90;;;;;;5108863;28;20479;-75
2022/10/24 04:25:02;;;;;;;6.75;1.63;;;15.10;99.90;;;;;;5109051;28;20984;-75
2022/10/24 04:27:28;;;;;;;7.25;1.90;;;15.10;99.90;;;;;;5108624;28;20446;-74
2022/10/24 04:29:54;;;;;;;6.85;1.50;;;15.10;99.90;;;;;;5109450;28;20769;-75
2022/10/24 04:32:19;;;;;;;7.00;1.90;;;15.10;99.90;;;;;;5109301;28;20435;-75
2022/10/24 04:34:45;;;;;;;6.22;1.70;;;15.10;99.90;;;;;;5108261;28;20403;-74
2022/10/24 04:37:11;;;;;;;5.30;1.80;;;15.00;99.90;;;;;;5108981;27;20392;-75
2022/10/24 04:39:36;;;;;;;7.47;1.60;;;14.90;99.90;;;;;;5107477;28;20466;-74
2022/10/24 04:42:02;;;;;;;5.73;1.70;;;14.90;99.90;;;;;;5109241;28;20392;-75
2022/10/24 04:44:28;;;;;;;5.78;2.00;;;14.80;99.90;;;;;;5112393;27;20420;-74
2022/10/24 04:46:53;;;;;;;7.70;2.27;;;14.80;99.90;;;;;;5106713;28;20513;-74
2022/10/24 04:49:19;;;;;;;7.60;1.80;;;14.70;99.90;;;;;;5121024;27;20410;-74
2022/10/24 04:51:44;;;;;;;5.55;1.83;;;14.70;99.90;;;;;;5108297;27;20423;-75
2022/10/24 04:54:10;;;;;;;6.70;1.40;;;14.60;99.90;;;;;;5106779;28;20411;-74
2022/10/24 04:56:36;;;;;;;7.25;2.17;;;14.60;99.90;;;;;;5108329;28;20401;-75
2022/10/24 04:59:01;;;;;;;5.13;1.70;;;14.60;99.90;;;;;;5107400;28;20396;-74
2022/10/24 05:01:27;;;;;;;7.07;1.70;;;14.50;99.90;;;;;;5107702;28;20400;-74
2022/10/24 05:03:52;;;;;;;5.27;1.37;;;14.50;99.90;;;;;;5108484;28;20512;-75
2022/10/24 05:06:18;;;;;;;5.43;1.80;;;14.40;99.90;;;;;;5108366;28;20479;-75
2022/10/24 05:08:44;;;;;;;6.60;1.63;;;14.40;99.90;;;;;;5108214;28;20426;-75
2022/10/24 05:11:10;;;;;;;6.33;1.60;;;14.40;99.90;;;;;;5108327;28;20400;-75
2022/10/24 05:13:37;;;;;;;7.72;1.83;;;14.30;99.90;;;;;;5108221;28;20406;-74
2022/10/24 05:16:04;;;;;;;5.00;1.45;;;14.30;99.90;;;;;;5108570;28;20397;-74
2022/10/24 05:18:29;;;;;;;7.63;1.60;;;14.30;99.90;;;;;;5107724;28;20428;-74
2022/10/24 05:20:57;;;;;;;5.97;1.60;;;14.20;99.90;;;;;;5107063;28;20432;-75
2022/10/24 05:23:22;;;;;;;7.47;1.80;;;14.20;99.90;;;;;;5089728;28;20509;-75
2022/10/24 05:25:48;;;;;;;6.20;1.50;;;14.20;99.90;;;;;;5108397;28;20593;-74
2022/10/24 05:28:14;;;;;;;6.20;1.48;;;14.20;99.90;;;;;;5107723;28;20404;-75
2022/10/24 05:30:42;;;;;;;4.83;1.63;;;14.20;99.90;;;;;;5108343;28;20404;-75
2022/10/24 05:33:08;;;;;;;6.22;1.50;;;14.20;99.90;;;;;;5106628;28;20420;-75
2022/10/24 05:35:33;;;;;;;4.88;1.27;;;14.20;99.90;;;;;;5107920;28;20846;-74
2022/10/24 05:37:59;;;;;;;7.00;1.50;;;14.20;99.90;;;;;;5107623;28;20772;-74
2022/10/24 05:40:24;;;;;;;8.00;2.10;;;14.20;99.90;;;;;;5089533;28;20456;-74
2022/10/24 05:42:51;;;;;;;5.28;1.38;;;14.20;99.90;;;;;;5107641;28;20454;-74
2022/10/24 05:45:17;;;;;;;8.27;1.40;;;14.20;99.90;;;;;;5107834;28;20396;-74
2022/10/24 05:47:43;;;;;;;4.65;1.30;;;14.20;99.90;;;;;;5106244;28;20423;-75
2022/10/24 05:50:09;;;;;;;5.85;1.05;;;14.20;99.90;;;;;;5108093;28;20445;-76
2022/10/24 05:52:35;;;;;;;3.75;0.90;;;14.20;99.90;;;;;;5105298;28;20437;-75
2022/10/24 05:55:04;;;;;;;5.55;1.00;;;14.20;99.90;;;;;;5092431;28;20445;-75
2022/10/24 05:57:29;;;;;;;4.60;1.30;;;14.30;99.90;;;;;;5095245;28;20939;-75
2022/10/24 05:59:55;;;;;;;4.20;1.10;;;14.30;99.90;;;;;;5106825;27;20394;-74
2022/10/24 06:02:20;;;;;;;6.30;1.47;;;14.20;99.90;;;;;;5111335;27;20819;-74
2022/10/24 06:04:47;;;;;;;7.32;1.42;;;14.30;99.90;;;;;;5109456;28;20424;-74
2022/10/24 06:07:13;;;;;;;5.88;1.15;;;14.20;99.90;;;;;;5108952;28;20826;-74
2022/10/24 06:09:41;;;;;;;7.53;1.20;;;14.20;99.90;;;;;;5110405;28;20397;-74
2022/10/24 06:12:09;;;;;;;7.28;1.17;;;14.20;99.90;;;;;;5111174;27;20407;-75
2022/10/24 06:14:36;;;;;;;8.10;1.60;;;14.20;99.90;;;;;;5109450;28;21007;-74
2022/10/24 06:17:04;;;;;;;6.13;0.83;;;14.20;99.90;;;;;;5109731;28;20400;-75
2022/10/24 06:19:30;;;;;;;5.47;0.95;;;14.30;99.90;;;;;;5111201;28;20396;-74
2022/10/24 06:21:55;;;;;;;6.15;1.00;;;14.30;99.90;;;;;;5111313;28;21087;-75
2022/10/24 06:24:21;;;;;;;5.67;1.10;;;14.30;99.90;;;;;;5103529;28;20922;-74
2022/10/24 06:26:46;;;;;;;6.47;1.00;;;14.40;99.90;;;;;;5111336;28;20766;-74
2022/10/24 06:29:12;;;;;;;5.47;1.00;;;14.40;99.90;;;;;;5111227;28;20404;-74
2022/10/24 06:31:38;;;;;;;6.17;1.47;;;14.40;99.90;;;;;;5110867;28;20400;-75
2022/10/24 06:34:03;;;;;;;6.97;1.23;;;14.50;99.90;;;;;;5109606;28;20487;-75
2022/10/24 06:36:29;;;;;;;6.30;1.00;;;14.50;99.90;;;;;;5098301;27;20425;-74
2022/10/24 06:38:56;;;;;;;5.72;0.98;;;14.50;99.90;;;;;;5118416;27;20495;-74
2022/10/24 06:41:22;;;;;;;5.88;0.90;;;14.60;99.90;;;;;;5109362;28;20413;-75
2022/10/24 06:43:48;;;;;;;5.90;1.07;;;14.60;99.90;;;;;;5111103;28;20855;-74
2022/10/24 06:46:16;;;;;;;6.07;0.93;;;14.70;99.90;;;;;;5110226;28;20738;-75
2022/10/24 06:48:42;;;;;;;6.18;1.25;;;14.70;99.90;;;;;;5110887;28;20458;-74
2022/10/24 06:51:08;;;;;;;5.20;0.88;;;14.70;99.90;;;;;;5097692;28;20420;-74
2022/10/24 06:53:34;;;;;;;6.03;1.00;;;14.70;99.90;;;;;;5109892;28;20471;-75
2022/10/24 06:56:05;;;;;;;5.25;1.10;;;14.70;99.90;;;;;;5109558;28;20453;-75
2022/10/24 06:58:32;;;;;;;9.45;0.93;;;14.70;99.90;;;;;;5104324;28;20433;-74
2022/10/24 07:00:58;;;;;;;7.07;0.88;;;14.80;99.90;;;;;;5110566;28;20905;-74
2022/10/24 07:03:23;;;;;;;6.70;0.73;;;14.80;99.90;;;;;;5109148;28;20657;-74
2022/10/24 07:05:49;;;;;;;9.80;0.97;;;14.80;99.90;;;;;;5086277;28;20401;-74
2022/10/24 07:08:14;;;;;;;6.70;0.90;;;14.80;99.90;;;;;;5109832;28;20388;-75
2022/10/24 07:10:40;;;;;;;6.50;0.70;;;14.90;99.90;;;;;;5108858;27;20516;-74
2022/10/24 07:13:06;;;;;;;5.23;0.80;;;14.90;99.90;;;;;;5108564;28;20396;-74
2022/10/24 07:15:31;;;;;;;5.75;0.90;;;14.90;99.90;;;;;;5114117;27;20391;-75
2022/10/24 07:17:57;;;;;;;6.80;1.03;;;14.90;99.90;;;;;;5114413;27;20461;-74
2022/10/24 07:20:22;;;;;;;5.45;1.20;;;14.90;99.90;;;;;;5091029;28;20409;-75
2022/10/24 07:22:48;;;;;;;4.57;1.17;;;15.00;99.90;;;;;;5107480;28;20498;-74
2022/10/24 07:25:14;;;;;;;5.90;0.85;;;15.00;99.90;;;;;;5108527;28;20457;-74
2022/10/24 07:27:40;;;;;;;7.70;0.90;;;15.00;99.90;;;;;;5108883;27;20770;-75
2022/10/24 07:30:07;;;;;;;7.93;1.20;;;15.00;99.90;;;;;;5108349;28;20403;-74
2022/10/24 07:32:33;;;;;;;7.18;0.85;;;15.10;99.90;;;;;;5108492;28;20384;-75
2022/10/24 07:34:59;;;;;;;5.47;0.75;;;15.10;99.90;;;;;;5109070;28;20921;-74
2022/10/24 07:37:25;;;;;;;5.73;1.00;;;15.20;99.90;;;;;;5108067;28;20409;-74
2022/10/24 07:39:51;;;;;;;4.18;0.80;;;15.20;99.90;;;;;;5108774;28;20537;-75
2022/10/24 07:42:17;;;;;;;5.55;0.93;;;15.20;99.90;;;;;;5090729;28;20433;-75
2022/10/24 07:44:43;;;;;;;6.47;1.05;;;15.20;99.90;;;;;;5101102;28;20420;-74
2022/10/24 07:47:10;;;;;;;7.10;1.05;;;15.30;99.90;;;;;;5108055;28;20408;-74
2022/10/24 07:49:36;;;;;;;5.43;1.00;;;15.30;99.90;;;;;;5108890;28;20393;-74
2022/10/24 07:52:02;;;;;;;4.95;0.80;;;15.30;99.90;;;;;;5090266;28;20404;-75
2022/10/24 07:54:28;;;;;;;7.93;1.07;;;15.40;99.90;;;;;;5108545;28;20449;-75
2022/10/24 07:56:54;;;;;;;8.27;1.02;;;15.40;99.90;;;;;;5089836;28;20924;-75
2022/10/24 07:59:20;;;;;;;5.70;1.00;;;15.40;99.90;;;;;;5107952;28;20404;-74
2022/10/24 08:01:45;;;;;;;10.17;1.20;;;15.40;99.90;;;;;;5108965;28;20396;-75
2022/10/24 08:04:12;;;;;;;6.70;0.90;;;15.40;99.90;;;;;;5109557;28;20431;-74
2022/10/24 08:06:40;;;;;;;4.13;0.63;;;15.40;99.90;;;;;;5108364;28;20483;-74
2022/10/24 08:09:06;;;;;;;6.53;1.10;;;15.40;99.90;;;;;;5108744;28;20396;-75
2022/10/24 08:11:31;;;;;;;4.60;1.00;;;15.50;99.90;;;;;;5107509;28;20400;-74
2022/10/24 08:13:57;;;;;;;5.55;0.90;;;15.60;99.90;;;;;;5109265;28;20452;-74
2022/10/24 08:16:24;;;;;;;5.17;0.90;;;15.70;99.90;;;;;;5106983;28;20396;-74
2022/10/24 08:18:51;;;;;;;7.07;0.93;;;15.70;99.90;;;;;;5107855;28;20396;-74
2022/10/24 08:21:19;;;;;;;5.70;1.10;;;15.70;99.90;;;;;;5108445;28;20509;-74
2022/10/24 08:23:46;;;;;;;7.40;0.90;;;15.80;99.90;;;;;;5108614;28;20428;-74
2022/10/24 08:26:15;;;;;;;5.93;1.00;;;15.90;99.90;;;;;;5095011;28;20393;-74
2022/10/24 08:28:41;;;;;;;6.68;1.10;;;15.90;99.90;;;;;;5109074;28;20401;-74
2022/10/24 08:31:10;;;;;;;5.35;0.80;;;15.90;99.90;;;;;;5107743;28;20392;-74
2022/10/24 08:33:36;;;;;;;7.73;0.90;;;16.00;99.90;;;;;;5119935;27;20407;-74
2022/10/24 08:36:05;;;;;;;5.25;0.98;;;16.00;99.90;;;;;;5103443;28;21137;-75
2022/10/24 08:38:31;;;;;;;4.38;0.80;;;16.00;99.90;;;;;;5108649;28;20762;-75
2022/10/24 08:40:58;;;;;;;7.13;0.90;;;16.10;99.90;;;;;;5108751;28;20537;-75
2022/10/24 08:43:25;;;;;;;6.33;1.10;;;16.10;99.90;;;;;;5110290;27;20480;-74
2022/10/24 08:46:09;;;;;;;6.53;0.90;;;16.20;99.90;;;;;;5111852;27;20403;-75
2022/10/24 08:48:43;;;;;;;7.13;0.90;;;16.20;99.90;;;;;;5108898;28;20831;-74
2022/10/24 08:51:21;;;;;;;5.95;0.80;;;16.30;99.90;;;;;;5109025;28;20457;-74
2022/10/24 08:53:50;;;;;;;4.38;0.80;;;16.40;99.90;;;;;;5104379;28;20405;-74
2022/10/24 08:56:16;;;;;;;4.90;0.85;;;16.40;99.90;;;;;;5108692;28;20397;-74
2022/10/24 08:58:44;;;;;;;6.78;0.98;;;16.40;99.90;;;;;;5108658;28;20400;-74
2022/10/24 09:01:31;;;;;;;7.50;0.90;;;16.30;99.90;;;;;;5108495;28;20400;-74
2022/10/24 09:04:00;;;;;;;6.53;1.00;;;16.30;99.90;;;;;;5107972;28;20793;-75
2022/10/24 09:06:28;;;;;;;4.53;0.60;;;16.30;99.90;;;;;;5107965;28;20453;-74
2022/10/24 09:09:22;;;;;;;6.55;1.05;;;16.20;99.90;;;;;;5107739;28;20396;-75
2022/10/24 09:11:53;;;;;;;7.32;0.95;;;16.20;99.90;;;;;;5107640;28;20414;-74
2022/10/24 09:14:28;;;;;;;8.18;1.15;;;16.20;99.90;;;;;;5108425;28;20400;-75
2022/10/24 09:16:59;;;;;;;6.97;1.10;;;16.20;99.90;;;;;;5108581;28;20395;-74
2022/10/24 09:19:27;;;;;;;7.80;1.30;;;16.00;99.90;;;;;;5108038;28;20735;-74
2022/10/24 09:21:55;;;;;;;8.02;0.80;;;15.90;99.90;;;;;;5108278;28;20404;-74
2022/10/24 09:24:49;;;;;;;7.30;1.17;;;15.90;99.90;;;;;;5097670;28;20426;-74
2022/10/24 09:27:28;;;;;;;9.45;0.80;;;15.90;99.90;;;;;;5099263;28;20447;-74
2022/10/24 09:29:55;;;;;;;7.17;1.00;;;15.80;99.90;;;;;;5107887;28;20396;-74
2022/10/24 09:32:25;;;;;;;7.65;1.00;;;15.80;99.90;;;;;;5107734;28;20982;-74
2022/10/24 09:34:51;;;;;;;6.03;0.85;;;15.80;99.90;;;;;;5111240;28;20396;-74
2022/10/24 09:37:45;;;;;;;7.32;1.00;;;15.90;99.90;;;;;;5111545;28;20583;-76
2022/10/24 09:40:24;;;;;;;5.77;1.00;;;15.90;99.90;;;;;;5097735;27;20928;-76
2022/10/24 09:43:29;;;;;;;8.48;1.00;;;16.00;99.90;;;;;;5110628;27;20444;-76
2022/10/24 09:46:11;;;;;;;8.68;1.20;;;16.00;99.90;;;;;;5079545;28;20824;-74
2022/10/24 09:48:55;;;;;;;8.38;0.98;;;16.00;99.90;;;;;;5112189;27;20416;-74
2022/10/24 09:51:32;;;;;;;8.48;1.27;;;16.00;99.90;;;;;;5111789;28;20412;-74
2022/10/24 09:54:02;;;;;;;7.10;1.13;;;16.00;99.90;;;;;;5111712;28;20415;-74
2022/10/24 09:56:34;;;;;;;8.02;1.30;;;15.90;99.90;;;;;;5118384;27;20402;-74
2022/10/24 09:59:40;;;;;;;6.90;1.00;;;15.90;99.90;;;;;;5110890;27;20443;-75
2022/10/24 10:02:26;;;;;;;5.03;0.73;;;15.90;99.90;;;;;;5110614;28;20409;-74
2022/10/24 10:05:01;;;;;;;5.10;0.90;;;16.10;99.90;;;;;;5111437;28;20476;-74
2022/10/24 10:07:29;;;;;;;5.50;0.70;;;17.20;99.90;;;;;;5093381;28;20820;-75
2022/10/24 10:09:58;;;;;;;7.35;0.98;;;17.80;99.90;;;;;;5110911;28;20404;-75
2022/10/24 10:12:24;;;;;;;5.45;1.00;;;17.80;99.90;;;;;;5111682;28;20401;-76
2022/10/24 10:14:50;;;;;;;6.97;0.90;;;17.50;99.90;;;;;;5110661;28;20411;-77
2022/10/24 10:17:22;;;;;;;6.85;1.08;;;17.30;99.90;;;;;;5110550;28;20393;-75
2022/10/24 10:19:51;;;;;;;6.15;0.88;;;17.10;99.90;;;;;;5111465;28;20412;-74
2022/10/24 10:22:27;;;;;;;5.63;1.10;;;17.00;99.90;;;;;;5111538;28;20401;-74
2022/10/24 10:24:54;;;;;;;5.40;0.82;;;16.90;99.90;;;;;;5110879;28;20468;-74
2022/10/24 10:27:33;;;;;;;4.53;0.70;;;16.90;99.90;;;;;;5109816;28;20408;-75
2022/10/24 10:30:20;;;;;;;5.10;0.60;;;16.90;99.90;;;;;;5111549;28;20483;-75
2022/10/24 10:33:15;;;;;;;6.72;1.00;;;16.80;99.90;;;;;;5122770;27;20455;-74
2022/10/24 10:36:01;;;;;;;7.93;1.23;;;16.80;99.90;;;;;;5111390;28;20412;-74
2022/10/24 10:38:39;;;;;;;4.55;0.77;;;16.90;99.90;;;;;;5082365;28;20439;-75
2022/10/24 10:41:08;;;;;;;6.17;1.00;;;16.90;99.90;;;;;;5121218;27;20451;-74
2022/10/24 10:43:53;;;;;;;7.03;1.10;;;16.80;99.90;;;;;;5112212;27;20441;-75
2022/10/24 10:46:36;;;;;;;7.72;0.93;;;16.70;99.90;;;;;;5110098;28;21047;-75
2022/10/24 10:49:09;;;;;;;6.80;0.80;;;16.70;99.90;;;;;;5122415;27;20770;-75
2022/10/24 10:52:06;;;;;;;5.72;0.82;;;16.80;99.90;;;;;;5110602;28;20415;-75
2022/10/24 10:54:50;;;;;;;6.40;1.20;;;16.80;99.90;;;;;;5097844;28;20793;-74
2022/10/24 10:57:21;;;;;;;8.95;1.02;;;16.70;99.90;;;;;;5110586;27;20401;-74
2022/10/24 10:59:56;;;;;;;5.28;0.85;;;16.70;99.90;;;;;;5110912;28;20451;-74
2022/10/24 11:02:47;;;;;;;5.93;0.80;;;16.60;99.90;;;;;;5110548;28;20416;-75
2022/10/24 11:05:34;;;;;;;6.50;0.88;;;16.60;99.90;;;;;;5109432;28;20489;-74
2022/10/24 11:08:28;;;;;;;7.93;1.10;;;16.50;99.90;;;;;;5109998;28;20824;-74
2022/10/24 11:11:06;;;;;;;8.32;0.90;;;16.30;99.90;;;;;;5099726;28;20400;-75
2022/10/24 11:13:41;;;;;;;5.88;0.90;;;16.20;99.90;;;;;;5089701;28;20404;-74
2022/10/24 11:16:13;;;;;;;7.63;1.00;;;16.00;99.90;;;;;;5110520;28;20409;-74
2022/10/24 11:18:43;;;;;;;5.03;0.80;;;15.90;99.90;;;;;;5103125;28;20516;-74
2022/10/24 11:21:12;;;;;;;5.43;0.80;;;15.90;99.90;;;;;;5105744;28;20412;-74
2022/10/24 11:23:53;;;;;;;7.80;0.93;;;16.00;99.90;;;;;;5108165;28;20480;-74
2022/10/24 11:26:25;;;;;;;7.53;1.10;;;16.10;99.90;;;;;;5110311;28;20397;-74
2022/10/24 11:29:10;;;;;;;8.75;0.80;;;16.80;99.90;;;;;;5112224;27;20492;-74
2022/10/24 11:31:43;;;;;;;7.20;0.90;;;17.70;99.90;;;;;;5108374;28;20412;-75
2022/10/24 11:34:23;;;;;;;6.30;0.80;;;17.90;99.90;;;;;;5109021;28;20412;-74
2022/10/24 11:37:19;;;;;;;6.63;0.80;;;18.00;99.90;;;;;;5108434;28;20408;-74
2022/10/24 11:39:54;;;;;;;7.40;0.70;;;18.20;99.90;;;;;;5109304;28;20483;-74
2022/10/24 11:42:29;;;;;;;6.82;0.60;;;18.10;99.90;;;;;;5109765;28;20401;-74
2022/10/24 11:45:09;;;;;;;5.55;1.00;;;17.70;99.90;;;;;;5112883;27;20420;-74
2022/10/24 11:48:12;;;;;;;7.30;0.88;;;17.40;99.90;;;;;;5093007;27;20412;-74
2022/10/24 11:50:48;;;;;;;6.45;0.90;;;17.30;99.90;;;;;;5113519;27;21226;-74
2022/10/24 11:53:30;;;;;;;8.93;1.20;;;17.10;99.90;;;;;;5108109;28;20401;-74
2022/10/24 11:56:07;;;;;;;7.13;1.00;;;17.10;99.90;;;;;;5109243;28;20465;-75
2022/10/24 11:58:37;;;;;;;6.38;0.68;;;17.20;99.90;;;;;;5091742;28;20447;-74
2022/10/24 12:01:20;;;;;;;4.78;0.77;;;17.30;99.90;;;;;;5091298;28;20412;-74
2022/10/24 12:03:55;;;;;;;6.07;0.67;;;17.40;99.90;;;;;;5107691;28;20928;-74
2022/10/24 12:06:26;;;;;;;9.10;1.25;;;17.60;99.90;;;;;;5109063;28;20402;-75
2022/10/24 12:08:55;;;;;;;5.82;1.00;;;17.50;99.90;;;;;;5109139;27;20487;-74
2022/10/24 12:11:45;;;;;;;5.95;0.75;;;17.60;99.90;;;;;;5108957;28;20483;-74
2022/10/24 12:14:29;;;;;;;5.85;0.80;;;17.60;99.90;;;;;;5098781;28;20409;-74
2022/10/24 12:17:16;;;;;;;4.35;0.50;;;17.40;99.90;;;;;;5108861;28;20411;-74
2022/10/24 12:19:43;;;;;;;6.70;0.90;;;17.30;99.90;;;;;;5090234;28;20419;-74
2022/10/24 12:22:22;;;;;;;6.57;0.77;;;17.30;99.90;;;;;;5108686;28;20529;-74
2022/10/24 12:25:00;;;;;;;7.50;1.02;;;17.30;99.90;;;;;;5107571;28;20436;-74
2022/10/24 12:27:40;;;;;;;5.72;0.65;;;17.30;99.90;;;;;;5109290;28;20881;-75
2022/10/24 12:30:08;;;;;;;7.10;0.70;;;17.20;99.90;;;;;;5094592;28;20417;-75
2022/10/24 12:32:37;;;;;;;5.82;1.00;;;17.10;99.90;;;;;;5108548;28;20415;-74
2022/10/24 12:35:23;;;;;;;4.78;0.90;;;17.00;99.90;;;;;;5107800;28;20401;-75
2022/10/24 12:37:49;;;;;;;6.03;0.70;;;17.00;99.90;;;;;;5110372;27;20400;-75
2022/10/24 12:40:57;;;;;;;4.97;0.90;;;17.10;99.90;;;;;;5107821;28;20931;-75
2022/10/24 12:43:39;;;;;;;4.03;0.50;;;17.30;99.90;;;;;;5062879;28;20460;-75
2022/10/24 12:46:14;;;;;;;5.65;0.70;;;17.30;99.90;;;;;;5045669;28;20518;-74
2022/10/24 12:48:57;;;;;;;4.38;0.73;;;17.30;99.90;;;;;;5092943;28;20423;-75
2022/10/24 12:51:26;;;;;;;7.22;0.68;;;17.20;99.90;;;;;;5096006;28;20400;-74
2022/10/24 12:54:03;;;;;;;5.17;0.80;;;17.20;99.90;;;;;;5106488;28;20409;-75
2022/10/24 12:56:30;;;;;;;4.97;0.77;;;17.10;99.90;;;;;;5106364;28;20409;-74
2022/10/24 12:58:59;;;;;;;6.50;0.80;;;17.10;99.90;;;;;;5106701;28;20396;-75
2022/10/24 13:01:33;;;;;;;6.28;0.60;;;17.00;99.90;;;;;;5090445;28;20502;-74
2022/10/24 13:04:41;;;;;;;4.78;0.43;;;17.10;99.90;;;;;;5094300;28;20435;-75